Time;durP1;ratioP1;P1;durP2;ratioP2;P2;SDS_P1;SDS_P2;PMS_P1;PMS_P2;Temp;Humidity;BMP_temperature;BMP_pressure;BME280_temperature;BME280_humidity;BME280_pressure;Samples;Min_cycle;Max_cycle;Signal;HPM_P1;HPM_P2
2022/01/26 00:07:50;;;;;;;36.55;11.73;;;2.30;99.90;;;;;;6749406;88;20688;-74
2022/01/26 00:17:52;;;;;;;36.40;11.80;;;2.40;99.90;;;;;;6749143;87;20232;-73
2022/01/26 00:48:20;;;;;;;33.15;11.35;;;2.20;99.90;;;;;;6748789;88;20199;-74
2022/01/26 00:58:21;;;;;;;35.22;11.23;;;2.20;99.90;;;;;;6750157;88;20292;-72
2022/01/26 01:08:23;;;;;;;30.77;11.02;;;2.30;99.90;;;;;;6749901;88;20207;-74
2022/01/26 01:38:57;;;;;;;34.78;12.57;;;2.30;99.90;;;;;;6747902;88;20177;-73
2022/01/26 01:48:57;;;;;;;35.75;13.50;;;2.50;99.90;;;;;;6748536;88;20208;-73
2022/01/26 01:58:58;;;;;;;35.22;12.85;;;2.60;99.90;;;;;;6747760;88;20691;-73
2022/01/26 02:08:59;;;;;;;38.75;13.68;;;2.50;99.90;;;;;;6748050;88;20651;-72
2022/01/26 02:19:27;;;;;;;36.05;13.95;;;2.60;99.90;;;;;;6747003;87;20234;-73
2022/01/26 03:00:38;;;;;;;42.83;15.85;;;2.50;99.90;;;;;;6747349;88;20206;-72
2022/01/26 03:20:44;;;;;;;42.78;15.65;;;2.50;99.90;;;;;;6764796;88;20226;-73
2022/01/26 03:40:47;;;;;;;47.65;17.27;;;2.60;99.90;;;;;;6749288;88;20691;-73
2022/01/26 03:50:48;;;;;;;50.78;18.30;;;2.60;99.90;;;;;;6749855;88;20235;-73
2022/01/26 04:00:48;;;;;;;56.13;19.45;;;2.50;99.90;;;;;;6749347;88;20617;-73
2022/01/26 04:21:10;;;;;;;55.58;19.50;;;2.70;99.90;;;;;;6748805;88;20239;-73
2022/01/26 04:31:11;;;;;;;53.97;19.10;;;2.60;99.90;;;;;;6749281;88;20188;-73
2022/01/26 04:51:15;;;;;;;60.90;19.35;;;2.50;99.90;;;;;;6748460;87;20554;-72
2022/01/26 05:01:15;;;;;;;60.78;19.52;;;2.60;99.90;;;;;;6746541;88;20193;-73
2022/01/26 05:11:27;;;;;;;64.55;20.90;;;2.40;99.90;;;;;;6747743;88;20217;-73
2022/01/26 05:21:29;;;;;;;65.07;20.80;;;2.50;99.90;;;;;;6746697;88;20349;-72
2022/01/26 05:31:29;;;;;;;66.28;20.52;;;2.50;99.90;;;;;;6748560;88;20211;-73
2022/01/26 05:41:31;;;;;;;63.93;19.87;;;2.50;99.90;;;;;;6748477;88;20272;-73
2022/01/26 05:51:33;;;;;;;65.80;19.75;;;2.40;99.90;;;;;;6748120;87;20525;-73
2022/01/26 06:01:33;;;;;;;63.10;20.73;;;2.50;99.90;;;;;;6743630;87;20188;-76
2022/01/26 06:11:34;;;;;;;71.35;20.95;;;2.50;99.90;;;;;;6745881;88;20566;-75
2022/01/26 06:21:35;;;;;;;71.85;22.67;;;2.50;99.90;;;;;;6755160;88;20608;-73
2022/01/26 06:31:39;;;;;;;66.37;19.83;;;2.50;99.90;;;;;;6745532;88;20695;-73
2022/01/26 06:41:48;;;;;;;60.17;19.62;;;2.40;99.90;;;;;;6747493;88;20621;-73
2022/01/26 06:51:53;;;;;;;53.87;17.73;;;2.40;99.90;;;;;;6748671;87;20752;-75
2022/01/26 07:01:54;;;;;;;44.90;15.60;;;2.30;99.90;;;;;;6746353;87;20266;-73
2022/01/26 07:11:54;;;;;;;50.53;16.50;;;2.20;99.90;;;;;;6747728;87;20211;-73
2022/01/26 07:21:55;;;;;;;50.85;18.60;;;2.20;99.90;;;;;;6749172;88;20551;-72
2022/01/26 07:31:55;;;;;;;54.45;18.40;;;2.20;99.90;;;;;;6751634;87;20184;-75
2022/01/26 07:41:57;;;;;;;51.35;15.77;;;2.20;99.90;;;;;;6751562;88;20209;-76
2022/01/26 07:51:57;;;;;;;57.15;19.83;;;2.20;99.90;;;;;;6747253;87;20234;-76
2022/01/26 08:01:58;;;;;;;53.45;17.20;;;2.30;99.90;;;;;;6751545;87;20184;-76
2022/01/26 08:11:58;;;;;;;55.83;17.87;;;2.10;99.90;;;;;;6752152;87;20225;-73
2022/01/26 08:22:01;;;;;;;51.35;17.27;;;2.00;99.90;;;;;;6756994;88;20199;-75
2022/01/26 08:32:02;;;;;;;50.65;16.33;;;2.00;99.90;;;;;;6751317;88;20212;-75
2022/01/26 08:42:05;;;;;;;59.88;17.85;;;1.90;99.90;;;;;;6751015;88;20202;-75
2022/01/26 08:52:06;;;;;;;60.55;18.98;;;2.00;99.90;;;;;;6750324;88;20196;-76
2022/01/26 09:02:08;;;;;;;58.85;18.73;;;2.00;99.90;;;;;;6750720;87;20255;-75
2022/01/26 09:12:10;;;;;;;58.90;18.15;;;2.00;99.90;;;;;;6749943;87;20190;-75
2022/01/26 09:22:13;;;;;;;60.40;19.48;;;2.10;99.90;;;;;;6756483;87;20687;-76
2022/01/26 09:32:14;;;;;;;59.80;17.52;;;2.10;99.90;;;;;;6746229;88;20301;-75
2022/01/26 09:42:17;;;;;;;69.53;19.73;;;2.10;99.90;;;;;;6747323;87;20290;-75
2022/01/26 09:52:27;;;;;;;63.05;17.73;;;2.30;99.90;;;;;;6754122;88;20185;-75
2022/01/26 10:02:32;;;;;;;73.20;18.58;;;2.10;99.90;;;;;;6751560;87;20317;-75
2022/01/26 10:22:53;;;;;;;68.53;19.15;;;2.20;99.90;;;;;;6750283;88;20326;-76
2022/01/26 10:32:54;;;;;;;59.03;16.87;;;2.00;99.90;;;;;;6751394;88;20198;-75
2022/01/26 10:43:11;;;;;;;67.55;17.05;;;2.10;99.90;;;;;;6753208;88;20185;-75
2022/01/26 10:53:19;;;;;;;56.55;16.75;;;2.20;99.90;;;;;;6750773;88;20697;-75
2022/01/26 11:03:21;;;;;;;55.25;16.50;;;2.30;99.90;;;;;;6748417;88;20604;-76
2022/01/26 11:13:35;;;;;;;56.92;16.15;;;2.40;99.90;;;;;;6750654;87;20201;-76
2022/01/26 11:23:40;;;;;;;61.20;16.85;;;2.50;99.90;;;;;;6751389;88;20723;-75
2022/01/26 11:33:40;;;;;;;56.85;16.23;;;2.50;99.90;;;;;;6752746;88;20213;-76
2022/01/26 11:54:11;;;;;;;52.42;16.08;;;2.40;99.90;;;;;;6751781;87;20165;-75
2022/01/26 12:04:16;;;;;;;47.90;14.60;;;2.60;99.90;;;;;;6751422;87;20320;-76
2022/01/26 12:14:20;;;;;;;43.75;14.32;;;2.70;99.90;;;;;;6752298;88;20180;-76
2022/01/26 12:34:48;;;;;;;40.95;14.23;;;2.90;99.90;;;;;;6748571;88;20177;-76
2022/01/26 12:45:01;;;;;;;40.90;14.35;;;3.00;99.90;;;;;;6748326;88;20266;-76
2022/01/26 12:55:03;;;;;;;41.15;13.90;;;3.00;99.90;;;;;;6749016;88;20326;-75
2022/01/26 13:05:04;;;;;;;31.67;11.50;;;3.10;99.90;;;;;;6750513;88;20244;-76
2022/01/26 13:15:19;;;;;;;34.30;11.65;;;3.00;99.90;;;;;;6750374;87;20203;-75
2022/01/26 13:36:03;;;;;;;39.65;13.25;;;3.00;99.90;;;;;;6748093;88;20296;-76
2022/01/26 13:46:43;;;;;;;41.35;13.73;;;2.90;99.90;;;;;;6749128;87;20611;-75
2022/01/26 14:06:49;;;;;;;46.97;15.70;;;2.90;99.90;;;;;;6748687;87;20220;-75
2022/01/26 14:16:57;;;;;;;55.43;17.30;;;3.00;99.90;;;;;;6750678;87;20231;-75
2022/01/26 14:27:00;;;;;;;48.05;15.32;;;3.00;99.90;;;;;;6750228;88;20478;-75
2022/01/26 16:04:19;;;;;;;51.22;16.95;;;2.80;99.90;;;;;;6752375;88;20191;-73
2022/01/26 17:11:42;;;;;;;56.22;16.12;;;2.40;99.90;;;;;;6753841;87;20217;-75
2022/01/26 18:53:41;;;;;;;30.08;11.52;;;2.40;99.90;;;;;;6750219;88;20750;-75
2022/01/26 19:03:43;;;;;;;31.10;11.30;;;2.40;99.90;;;;;;6755173;87;20318;-76
2022/01/26 19:13:45;;;;;;;28.42;9.68;;;2.30;99.90;;;;;;6739573;88;20181;-75
2022/01/26 19:24:15;;;;;;;31.45;10.02;;;2.50;99.90;;;;;;6751272;88;20288;-77
2022/01/26 19:54:46;;;;;;;22.70;8.20;;;2.30;99.90;;;;;;6751343;88;20211;-75
2022/01/26 20:04:47;;;;;;;30.98;10.98;;;2.30;99.90;;;;;;6752498;87;20587;-76
2022/01/26 20:14:47;;;;;;;33.90;10.85;;;2.20;99.90;;;;;;6752324;87;20205;-75
2022/01/26 20:24:48;;;;;;;32.92;11.35;;;2.20;99.90;;;;;;6752839;88;20254;-75
2022/01/26 20:34:50;;;;;;;35.55;11.88;;;2.10;99.90;;;;;;6751689;88;21026;-76
2022/01/26 20:44:50;;;;;;;39.63;12.55;;;2.20;99.90;;;;;;6751058;88;20283;-75
2022/01/26 20:54:51;;;;;;;35.90;11.60;;;2.20;99.90;;;;;;6751402;88;20334;-76
2022/01/26 21:04:53;;;;;;;36.42;12.45;;;2.20;99.90;;;;;;6750274;88;20321;-76
2022/01/26 21:14:54;;;;;;;39.47;11.85;;;2.10;99.90;;;;;;6765936;88;20689;-76
2022/01/26 21:24:54;;;;;;;42.67;13.05;;;2.10;99.90;;;;;;6758089;87;20251;-75
2022/01/26 21:34:55;;;;;;;39.55;12.40;;;2.00;99.90;;;;;;6754948;88;20232;-77
2022/01/26 21:44:55;;;;;;;36.08;11.02;;;2.00;99.90;;;;;;6751755;88;21047;-74
2022/01/26 21:54:56;;;;;;;35.35;11.05;;;2.10;99.90;;;;;;6750450;88;20535;-74
2022/01/26 22:04:57;;;;;;;37.70;11.57;;;2.10;99.90;;;;;;6747166;87;20230;-76
2022/01/26 22:14:57;;;;;;;34.83;10.98;;;2.10;99.90;;;;;;6753663;88;20208;-75
2022/01/26 22:24:58;;;;;;;35.92;10.73;;;2.10;99.90;;;;;;6756861;88;20211;-75
2022/01/26 22:34:59;;;;;;;30.52;9.68;;;2.10;99.90;;;;;;6751081;88;20246;-75
2022/01/26 22:45:00;;;;;;;31.75;9.88;;;2.10;99.90;;;;;;6755768;88;20716;-74
2022/01/26 22:55:01;;;;;;;31.50;9.98;;;2.10;99.90;;;;;;6754357;88;20180;-74
2022/01/26 23:05:13;;;;;;;30.65;10.60;;;2.10;99.90;;;;;;6754558;87;20349;-75
2022/01/26 23:15:14;;;;;;;29.55;10.23;;;2.10;99.90;;;;;;6754147;88;20523;-74
2022/01/26 23:25:26;;;;;;;29.12;9.65;;;2.20;99.90;;;;;;6756819;88;20255;-75
2022/01/26 23:35:49;;;;;;;26.75;8.77;;;2.10;99.90;;;;;;6759071;88;20181;-74
